createdAt,value
2023-03-13T00:01:48.646Z,101909.88
2023-03-13T00:04:16.730Z,101910.29
2023-03-13T00:06:45.577Z,101912.10
2023-03-13T00:09:15.946Z,101916.20
2023-03-13T00:11:45.443Z,101919.05
2023-03-13T00:14:13.571Z,101926.45
2023-03-13T00:16:41.783Z,101929.06
2023-03-13T00:19:10.116Z,101932.89
2023-03-13T00:21:40.488Z,101930.52
2023-03-13T00:24:11.180Z,101935.34
2023-03-13T00:26:39.136Z,101935.45
2023-03-13T00:29:06.968Z,101934.93
2023-03-13T00:31:35.044Z,101935.25
2023-03-13T00:34:04.576Z,101940.00
2023-03-13T00:36:35.113Z,101945.20
2023-03-13T00:39:06.111Z,101945.13
2023-03-13T00:41:37.529Z,101945.70
2023-03-13T00:44:06.675Z,101942.32
2023-03-13T00:46:35.008Z,101941.99
2023-03-13T00:49:03.784Z,101940.77
2023-03-13T00:51:31.916Z,101937.15
2023-03-13T00:54:00.456Z,101933.59
2023-03-13T00:56:29.152Z,101936.11
2023-03-13T00:58:59.364Z,101933.23
2023-03-13T01:01:34.980Z,101932.59
2023-03-13T01:04:09.857Z,101929.40
2023-03-13T01:06:42.321Z,101926.20
2023-03-13T01:09:14.717Z,101927.95
2023-03-13T01:11:44.592Z,101926.34
2023-03-13T01:14:19.672Z,101928.80
2023-03-13T01:16:47.862Z,101928.52
2023-03-13T01:19:16.657Z,101927.02
2023-03-13T01:21:46.418Z,101930.46
2023-03-13T01:24:15.083Z,101928.95
2023-03-13T01:26:44.899Z,101935.31
2023-03-13T01:29:15.946Z,101938.77
2023-03-13T01:31:46.196Z,101938.36
2023-03-13T01:34:14.167Z,101941.54
2023-03-13T01:36:43.194Z,101938.80
2023-03-13T01:39:12.135Z,101939.13
2023-03-13T01:41:40.382Z,101938.98
2023-03-13T01:44:49.115Z,101945.31
2023-03-13T01:47:17.070Z,101947.81
2023-03-13T01:50:09.544Z,101954.39
2023-03-13T01:52:51.200Z,101956.21
2023-03-13T01:55:23.326Z,101957.73
2023-03-13T01:57:54.483Z,101958.23
2023-03-13T02:00:29.750Z,101963.80
2023-03-13T02:03:03.574Z,101969.35
2023-03-13T02:05:35.543Z,101973.08
2023-03-13T02:08:18.399Z,101976.06
2023-03-13T02:11:40.620Z,101975.73
2023-03-13T02:14:09.379Z,101980.02
2023-03-13T02:16:38.054Z,101981.54
2023-03-13T02:19:24.095Z,101981.33
2023-03-13T02:22:21.795Z,101984.85
2023-03-13T02:25:23.717Z,101987.02
2023-03-13T02:28:01.142Z,102001.24
2023-03-13T02:30:29.708Z,102009.00
2023-03-13T02:32:57.897Z,102008.71
2023-03-13T02:35:27.215Z,102009.23
2023-03-13T02:38:03.830Z,102007.55
2023-03-13T02:40:42.402Z,102009.98
2023-03-13T02:43:16.681Z,102014.02
2023-03-13T02:46:14.911Z,102016.73
2023-03-13T02:48:50.570Z,102015.86
2023-03-13T02:51:29.346Z,102017.05
2023-03-13T02:54:04.613Z,102020.61
2023-03-13T02:56:36.135Z,102027.20
2023-03-13T02:59:04.911Z,102030.41
2023-03-13T03:01:33.360Z,102033.49
2023-03-13T03:04:01.876Z,102033.87
2023-03-13T03:06:29.875Z,102036.64
2023-03-13T03:08:58.035Z,102036.34
2023-03-13T03:11:26.972Z,102038.92
2023-03-13T03:13:59.536Z,102043.35
2023-03-13T03:16:28.163Z,102040.95
2023-03-13T03:18:56.396Z,102044.01
2023-03-13T03:21:24.764Z,102052.01
2023-03-13T03:23:52.726Z,102055.06
2023-03-13T03:26:20.870Z,102056.04
2023-03-13T03:28:48.975Z,102058.75
2023-03-13T03:31:18.150Z,102064.21
2023-03-13T03:33:47.390Z,102070.69
2023-03-13T03:36:22.293Z,102072.73
2023-03-13T03:38:51.160Z,102080.05
2023-03-13T03:41:21.195Z,102086.53
2023-03-13T03:43:49.835Z,102085.52
2023-03-13T03:46:20.579Z,102090.45
2023-03-13T03:48:48.559Z,102096.76
2023-03-13T03:51:16.640Z,102101.53
2023-03-13T03:53:45.767Z,102110.73
2023-03-13T03:56:14.364Z,102119.61
2023-03-13T03:58:46.768Z,102119.96
2023-03-13T04:01:55.611Z,102124.43
2023-03-13T04:04:27.005Z,102123.63
2023-03-13T04:07:02.222Z,102128.27
2023-03-13T04:09:32.262Z,102134.94
2023-03-13T04:12:02.245Z,102137.86
2023-03-13T04:14:33.533Z,102141.46
2023-03-13T04:17:04.377Z,102145.25
2023-03-13T04:19:32.642Z,102147.70
2023-03-13T04:22:01.235Z,102153.70
2023-03-13T04:24:29.403Z,102154.24
2023-03-13T04:27:01.230Z,102166.69
2023-03-13T04:29:29.618Z,102172.00
2023-03-13T04:32:20.005Z,102179.86
2023-03-13T04:35:09.601Z,102178.70
2023-03-13T04:37:55.842Z,102178.38
2023-03-13T04:40:48.158Z,102188.45
2023-03-13T04:43:28.419Z,102188.77
2023-03-13T04:46:14.886Z,102187.91
2023-03-13T04:49:01.536Z,102190.41
2023-03-13T04:51:47.828Z,102188.32
2023-03-13T04:54:50.975Z,102191.27
2023-03-13T04:57:35.633Z,102196.26
2023-03-13T05:00:19.960Z,102197.48
2023-03-13T05:03:04.199Z,102197.16
2023-03-13T05:05:57.869Z,102209.92
2023-03-13T05:08:44.671Z,102210.44
2023-03-13T05:11:59.199Z,102210.38
2023-03-13T05:14:47.333Z,102215.78
2023-03-13T05:17:27.260Z,102215.21
2023-03-13T05:20:10.828Z,102217.16
2023-03-13T05:22:58.782Z,102216.38
2023-03-13T05:25:49.719Z,102224.64
2023-03-13T05:29:02.026Z,102225.82
2023-03-13T05:31:58.533Z,102234.02
2023-03-13T05:35:13.583Z,102240.65
2023-03-13T05:38:31.285Z,102237.67
2023-03-13T05:41:08.775Z,102240.95
2023-03-13T05:44:23.734Z,102238.13
2023-03-13T05:47:18.545Z,102239.01
2023-03-13T05:50:09.754Z,102241.31
2023-03-13T05:53:00.585Z,102251.14
2023-03-13T05:56:11.063Z,102254.83
2023-03-13T05:58:53.030Z,102260.68
2023-03-13T06:01:40.558Z,102263.08
2023-03-13T06:04:14.422Z,102265.64
2023-03-13T06:06:43.006Z,102270.52
2023-03-13T06:09:11.267Z,102275.45
2023-03-13T06:11:39.564Z,102279.67
2023-03-13T06:14:07.895Z,102278.33
2023-03-13T06:16:56.161Z,102277.70
2023-03-13T06:19:26.290Z,102272.40
2023-03-13T06:21:54.347Z,102275.81
2023-03-13T06:24:22.706Z,102276.08
2023-03-13T06:26:53.440Z,102274.69
2023-03-13T06:29:23.554Z,102270.59
2023-03-13T06:31:51.917Z,102273.04
2023-03-13T06:34:32.523Z,102269.17
2023-03-13T06:37:00.747Z,102265.04
2023-03-13T06:39:29.067Z,102260.21
2023-03-13T06:41:57.155Z,102260.46
2023-03-13T06:44:25.713Z,102262.05
2023-03-13T06:46:54.478Z,102265.94
2023-03-13T06:49:22.694Z,102264.42
2023-03-13T06:51:50.954Z,102262.17
2023-03-13T06:54:19.374Z,102261.56
2023-03-13T06:56:47.453Z,102260.16
2023-03-13T06:59:15.527Z,102257.64
2023-03-13T07:01:43.929Z,102255.15
2023-03-13T07:04:13.518Z,102252.42
2023-03-13T07:06:42.424Z,102249.50
2023-03-13T07:09:11.371Z,102247.83
2023-03-13T07:11:39.925Z,102244.02
2023-03-13T07:14:16.554Z,102245.83
2023-03-13T07:16:45.781Z,102244.94
2023-03-13T07:19:14.988Z,102244.45
2023-03-13T07:21:43.733Z,102246.30
2023-03-13T07:24:12.380Z,102250.21
2023-03-13T07:26:48.579Z,102250.58
2023-03-13T07:29:24.139Z,102248.11
2023-03-13T07:31:53.092Z,102248.37
2023-03-13T07:34:21.268Z,102247.52
2023-03-13T07:36:49.372Z,102243.54
2023-03-13T07:39:17.723Z,102244.03
2023-03-13T07:41:46.139Z,102240.83
2023-03-13T07:44:17.875Z,102240.74
2023-03-13T07:46:47.968Z,102243.83
2023-03-13T07:49:16.437Z,102242.54
2023-03-13T07:51:47.190Z,102246.08
2023-03-13T07:54:15.310Z,102238.11
2023-03-13T07:56:44.016Z,102234.65
2023-03-13T07:59:12.256Z,102230.55
2023-03-13T08:31:23.646Z,102248.66
2023-03-13T08:33:52.095Z,102243.77
2023-03-13T08:36:22.895Z,102247.46
2023-03-13T08:38:58.213Z,102249.41
2023-03-13T08:41:29.978Z,102246.83
2023-03-13T08:43:58.727Z,102246.39
2023-03-13T08:46:30.800Z,102248.66
2023-03-13T08:48:59.200Z,102243.38
2023-03-13T08:51:28.587Z,102246.05
2023-03-13T08:53:57.384Z,102246.11
2023-03-13T08:56:29.748Z,102247.06
2023-03-13T08:59:03.258Z,102246.77
2023-03-13T09:01:33.837Z,102241.28
2023-03-13T09:04:05.054Z,102236.20
2023-03-13T09:06:35.973Z,102238.18
2023-03-13T09:09:06.493Z,102232.15
2023-03-13T09:11:36.717Z,102232.48
2023-03-13T09:14:06.389Z,102227.45
2023-03-13T09:16:34.603Z,102220.36
2023-03-13T09:19:03.868Z,102226.63
2023-03-13T09:21:35.246Z,102223.70
2023-03-13T09:24:03.994Z,102225.39
2023-03-13T09:26:32.113Z,102221.09
2023-03-13T09:29:00.029Z,102221.44
2023-03-13T09:31:31.078Z,102220.27
2023-03-13T09:34:00.322Z,102220.02
2023-03-13T09:36:28.618Z,102215.70
2023-03-13T09:38:59.763Z,102212.20
2023-03-13T09:41:59.924Z,102207.87
2023-03-13T09:44:51.138Z,102202.64
2023-03-13T09:48:02.128Z,102197.46
2023-03-13T09:50:46.284Z,102198.39
2023-03-13T09:53:41.906Z,102200.55
2023-03-13T09:56:24.451Z,102199.42
2023-03-13T09:59:05.679Z,102199.17
2023-03-13T10:01:36.269Z,102197.96
2023-03-13T10:04:19.172Z,102195.88
2023-03-13T10:06:48.741Z,102192.91
2023-03-13T10:09:28.283Z,102186.49
2023-03-13T10:12:20.902Z,102184.40
2023-03-13T10:15:16.392Z,102178.73
2023-03-13T10:17:44.573Z,102173.30
2023-03-13T10:20:34.758Z,102177.44
2023-03-13T10:23:15.338Z,102175.83
2023-03-13T10:25:44.412Z,102169.38
2023-03-13T10:28:16.635Z,102167.52
2023-03-13T10:30:59.980Z,102158.48
2023-03-13T10:33:31.900Z,102154.45
2023-03-13T10:36:38.985Z,102155.10
2023-03-13T10:39:37.410Z,102150.03
2023-03-13T10:42:36.566Z,102143.38
2023-03-13T10:45:06.512Z,102140.44
2023-03-13T10:47:35.749Z,102138.81
2023-03-13T10:50:04.470Z,102132.61
2023-03-13T10:52:44.864Z,102128.63
2023-03-13T10:55:19.754Z,102126.08
2023-03-13T10:58:05.987Z,102125.67
2023-03-13T11:00:40.786Z,102120.56
2023-03-13T11:03:35.407Z,102120.07
2023-03-13T11:06:04.018Z,102107.68
2023-03-13T11:08:37.885Z,102107.05
2023-03-13T11:11:20.174Z,102104.14
2023-03-13T11:13:48.522Z,102100.42
2023-03-13T11:16:26.227Z,102096.73
2023-03-13T11:19:19.738Z,102098.29
2023-03-13T11:22:07.865Z,102094.56
2023-03-13T11:24:52.456Z,102094.64
2023-03-13T11:27:42.448Z,102089.54
2023-03-13T11:30:38.791Z,102085.17
2023-03-13T11:33:36.498Z,102080.56
2023-03-13T11:36:28.676Z,102078.04
2023-03-13T11:39:40.725Z,102074.17
2023-03-13T11:42:45.908Z,102065.36
2023-03-13T11:45:41.671Z,102059.74
2023-03-13T11:48:51.482Z,102058.71
2023-03-13T11:51:57.596Z,102056.86
2023-03-13T11:54:52.320Z,102057.20
2023-03-13T11:57:41.354Z,102055.62
2023-03-13T12:00:35.719Z,102052.58
2023-03-13T12:03:19.862Z,102052.71
2023-03-13T12:05:58.698Z,102048.69
2023-03-13T12:08:44.325Z,102047.83
2023-03-13T12:11:27.280Z,102046.73
2023-03-13T12:14:14.192Z,102047.13
2023-03-13T12:17:13.471Z,102041.42
2023-03-13T12:20:11.756Z,102036.41
2023-03-13T12:22:56.218Z,102031.58
2023-03-13T12:25:32.629Z,102028.41
2023-03-13T12:28:58.958Z,102032.40
2023-03-13T12:31:52.398Z,102030.48
2023-03-13T12:34:33.336Z,102032.46
2023-03-13T12:37:26.368Z,102029.58
2023-03-13T12:40:37.229Z,102025.39
2023-03-13T12:43:08.169Z,102022.13
2023-03-13T12:46:06.636Z,102023.05
2023-03-13T12:49:14.064Z,102024.27
2023-03-13T12:51:57.293Z,102022.39
2023-03-13T12:54:49.587Z,102020.54
2023-03-13T12:57:51.649Z,102013.65
2023-03-13T13:00:27.601Z,102015.52
2023-03-13T13:03:33.018Z,102020.46
2023-03-13T13:06:16.262Z,102022.19
2023-03-13T13:08:53.523Z,102025.87
2023-03-13T13:11:34.533Z,102020.15
2023-03-13T13:14:17.670Z,102021.64
2023-03-13T13:17:10.436Z,102020.17
2023-03-13T13:19:41.494Z,102016.38
2023-03-13T13:22:37.619Z,102015.89
2023-03-13T13:25:18.094Z,102012.25
2023-03-13T13:27:50.171Z,102014.64
2023-03-13T13:30:18.234Z,102009.90
2023-03-13T13:33:14.882Z,102001.23
2023-03-13T13:35:43.075Z,102003.74
2023-03-13T13:38:17.348Z,101995.02
2023-03-13T13:41:03.242Z,101994.45
2023-03-13T13:43:37.752Z,101982.98
2023-03-13T13:46:33.822Z,101980.73
2023-03-13T13:49:07.964Z,101976.09
2023-03-13T13:51:41.113Z,101978.76
2023-03-13T13:54:33.825Z,101972.15
2023-03-13T13:57:15.886Z,101971.53
2023-03-13T13:59:55.437Z,101968.55
2023-03-13T14:02:47.232Z,101966.41
2023-03-13T14:05:21.671Z,101961.58
2023-03-13T14:08:14.605Z,101960.40
2023-03-13T14:11:30.032Z,101958.34
2023-03-13T14:14:19.343Z,101956.40
2023-03-13T14:16:51.847Z,101951.53
2023-03-13T14:19:30.340Z,101943.36
2023-03-13T14:22:05.660Z,101943.35
2023-03-13T14:24:34.945Z,101941.19
2023-03-13T14:27:23.604Z,101941.01
2023-03-13T14:30:08.678Z,101936.21
2023-03-13T14:32:38.473Z,101931.84
2023-03-13T14:35:09.724Z,101937.64
2023-03-13T14:37:44.128Z,101934.33
2023-03-13T14:40:31.352Z,101933.02
2023-03-13T14:43:03.541Z,101928.15
2023-03-13T14:45:36.584Z,101927.02
2023-03-13T14:48:33.936Z,101929.38
2023-03-13T14:51:18.539Z,101931.20
2023-03-13T14:53:59.704Z,101931.23
2023-03-13T14:56:38.170Z,101929.79
2023-03-13T14:59:18.937Z,101934.43
2023-03-13T15:02:02.254Z,101931.98
2023-03-13T15:05:07.056Z,101931.13
2023-03-13T15:07:46.433Z,101930.74
2023-03-13T15:10:32.628Z,101931.93
2023-03-13T15:13:13.308Z,101935.59
2023-03-13T15:15:41.348Z,101932.18
2023-03-13T15:18:23.450Z,101931.31
2023-03-13T15:21:16.349Z,101928.33
2023-03-13T15:23:52.830Z,101935.63
2023-03-13T15:26:21.561Z,101935.35
2023-03-13T15:28:50.082Z,101937.63
2023-03-13T15:31:21.258Z,101936.56
2023-03-13T15:33:59.956Z,101935.84
2023-03-13T15:36:31.209Z,101940.02
2023-03-13T15:38:59.219Z,101938.80
2023-03-13T15:41:27.356Z,101943.84
2023-03-13T15:43:56.454Z,101943.33
2023-03-13T15:46:25.876Z,101936.53
2023-03-13T15:48:55.114Z,101939.91
2023-03-13T15:51:23.169Z,101935.40
2023-03-13T15:53:52.987Z,101939.25
2023-03-13T15:56:23.009Z,101940.23
2023-03-13T15:58:51.465Z,101936.77
2023-03-13T16:01:19.663Z,101938.05
2023-03-13T16:03:47.749Z,101936.07
2023-03-13T16:06:20.144Z,101937.06
2023-03-13T16:08:48.100Z,101938.13
2023-03-13T16:11:17.014Z,101940.17
2023-03-13T16:13:45.383Z,101940.30
2023-03-13T16:16:25.271Z,101942.62
2023-03-13T16:18:53.942Z,101943.56
2023-03-13T16:21:30.253Z,101944.88
2023-03-13T16:23:58.274Z,101943.58
2023-03-13T16:26:31.150Z,101941.36
2023-03-13T16:28:59.147Z,101945.98
2023-03-13T16:31:31.235Z,101948.96
2023-03-13T16:34:00.612Z,101949.45
2023-03-13T16:36:31.551Z,101949.05
2023-03-13T16:39:03.300Z,101953.89
2023-03-13T16:41:32.337Z,101952.80
2023-03-13T16:44:02.109Z,101950.08
2023-03-13T16:46:37.351Z,101951.13
2023-03-13T16:49:07.704Z,101955.66
2023-03-13T16:51:35.644Z,101960.90
2023-03-13T16:54:06.000Z,101964.16
2023-03-13T16:56:38.842Z,101966.98
2023-03-13T16:59:19.456Z,101968.67
2023-03-13T17:01:47.596Z,101968.04
2023-03-13T17:04:15.590Z,101967.30
2023-03-13T17:06:47.284Z,101972.16
2023-03-13T17:09:17.176Z,101972.29
2023-03-13T17:11:45.417Z,101969.64
2023-03-13T17:14:13.428Z,101966.37
2023-03-13T17:16:43.942Z,101969.05
2023-03-13T17:19:16.439Z,101970.46
2023-03-13T17:21:44.473Z,101977.02
2023-03-13T17:24:12.488Z,101979.41
2023-03-13T17:26:40.897Z,101984.92
2023-03-13T17:29:15.965Z,101987.33
2023-03-13T17:31:44.441Z,101993.10
2023-03-13T17:34:12.540Z,101989.21
2023-03-13T17:36:44.868Z,101992.59
2023-03-13T17:39:14.225Z,101998.15
2023-03-13T17:41:42.132Z,101998.10
2023-03-13T17:44:10.066Z,101998.94
2023-03-13T17:46:45.959Z,102008.60
2023-03-13T17:49:16.905Z,102014.91
2023-03-13T17:51:45.954Z,102021.08
2023-03-13T17:54:15.773Z,102026.44
2023-03-13T17:56:45.037Z,102031.92
2023-03-13T17:59:16.780Z,102039.15
2023-03-13T18:01:45.066Z,102040.73
2023-03-13T18:04:13.752Z,102046.96
2023-03-13T18:06:45.004Z,102048.56
2023-03-13T18:09:17.793Z,102046.98
2023-03-13T18:11:46.566Z,102047.95
2023-03-13T18:14:15.053Z,102053.77
2023-03-13T18:16:47.197Z,102054.12
2023-03-13T18:19:22.854Z,102054.41
2023-03-13T18:21:54.997Z,102049.16
2023-03-13T18:24:23.038Z,102047.31
2023-03-13T18:26:51.171Z,102045.92
2023-03-13T18:29:28.784Z,102046.41
2023-03-13T18:31:59.878Z,102045.55
2023-03-13T18:34:29.439Z,102045.00
2023-03-13T18:37:03.050Z,102046.50
2023-03-13T18:39:32.788Z,102050.27
2023-03-13T18:42:01.418Z,102052.01
2023-03-13T18:44:29.656Z,102052.58
2023-03-13T18:46:58.533Z,102049.30
2023-03-13T18:49:26.630Z,102049.67
2023-03-13T18:51:54.742Z,102046.06
2023-03-13T18:54:24.151Z,102046.39
2023-03-13T18:56:52.227Z,102050.42
2023-03-13T18:59:22.516Z,102051.38
2023-03-13T19:01:50.562Z,102050.57
2023-03-13T19:04:19.614Z,102052.13
2023-03-13T19:06:49.486Z,102051.83
2023-03-13T19:09:42.133Z,102059.14
2023-03-13T19:12:16.917Z,102057.16
2023-03-13T19:14:47.653Z,102056.67
2023-03-13T19:17:33.529Z,102055.79
2023-03-13T19:20:03.894Z,102052.35
2023-03-13T19:22:34.254Z,102054.47
2023-03-13T19:25:02.230Z,102050.04
2023-03-13T19:27:30.936Z,102054.77
2023-03-13T19:29:59.269Z,102054.11
2023-03-13T19:32:27.404Z,102056.19
2023-03-13T19:34:55.383Z,102054.90
2023-03-13T19:37:23.428Z,102060.28
2023-03-13T19:39:55.504Z,102062.73
2023-03-13T19:42:23.601Z,102067.83
2023-03-13T19:44:51.587Z,102068.23
2023-03-13T19:47:19.669Z,102065.98
2023-03-13T19:49:50.403Z,102065.66
2023-03-13T19:52:18.656Z,102062.58
2023-03-13T19:54:46.585Z,102060.40
2023-03-13T19:57:14.558Z,102057.29
2023-03-13T19:59:42.521Z,102054.02
2023-03-13T20:02:11.488Z,102054.70
2023-03-13T20:04:41.597Z,102051.55
2023-03-13T20:07:09.692Z,102053.61
2023-03-13T20:09:37.757Z,102052.48
2023-03-13T20:12:06.107Z,102048.04
2023-03-13T20:14:34.142Z,102047.15
2023-03-13T20:17:03.245Z,102049.79
2023-03-13T20:19:31.799Z,102051.98
2023-03-13T20:22:03.234Z,102054.38
2023-03-13T20:24:33.154Z,102052.83
2023-03-13T20:27:02.809Z,102050.08
2023-03-13T20:29:31.240Z,102050.42
2023-03-13T20:32:00.908Z,102051.56
2023-03-13T20:34:28.924Z,102052.59
2023-03-13T20:36:59.391Z,102050.46
2023-03-13T20:39:27.779Z,102046.87
2023-03-13T20:41:55.753Z,102049.41
2023-03-13T20:44:23.785Z,102049.86
2023-03-13T20:46:51.924Z,102048.05
2023-03-13T20:49:20.328Z,102045.82
2023-03-13T20:51:48.291Z,102041.88
2023-03-13T20:54:16.264Z,102040.15
2023-03-13T20:56:44.448Z,102041.52
2023-03-13T20:59:12.697Z,102040.48
2023-03-13T21:01:40.793Z,102041.20
2023-03-13T21:04:08.871Z,102039.27
2023-03-13T21:06:36.937Z,102034.40
2023-03-13T21:09:05.050Z,102032.05
2023-03-13T21:11:33.142Z,102030.76
2023-03-13T21:14:01.172Z,102031.17
2023-03-13T21:16:29.285Z,102027.59
2023-03-13T21:18:57.326Z,102026.27
2023-03-13T21:21:25.317Z,102022.86
2023-03-13T21:23:53.435Z,102017.26
2023-03-13T21:26:21.965Z,102016.16
2023-03-13T21:28:52.277Z,102009.25
2023-03-13T21:31:20.344Z,102008.31
2023-03-13T21:33:48.404Z,102006.70
2023-03-13T21:36:22.463Z,102006.27
2023-03-13T21:38:50.605Z,102003.35
2023-03-13T21:41:20.904Z,102003.08
2023-03-13T21:43:48.992Z,101998.52
2023-03-13T21:46:19.282Z,102000.33
2023-03-13T21:48:47.478Z,101997.48
2023-03-13T21:51:16.717Z,102002.30
2023-03-13T21:53:44.862Z,101998.79
2023-03-13T21:56:15.025Z,101998.84
2023-03-13T21:58:44.943Z,101995.98
2023-03-13T22:01:14.447Z,101996.96
2023-03-13T22:03:43.233Z,101996.21
2023-03-13T22:06:17.637Z,101996.80
2023-03-13T22:08:48.601Z,101995.33
2023-03-13T22:11:23.984Z,101994.05
2023-03-13T22:13:53.595Z,101990.52
2023-03-13T22:16:28.869Z,101992.02
2023-03-13T22:18:56.915Z,101982.80
2023-03-13T22:21:26.244Z,101973.77
2023-03-13T22:23:54.236Z,101971.99
2023-03-13T22:26:22.300Z,101972.99
2023-03-13T22:28:51.598Z,101969.32
2023-03-13T22:31:19.578Z,101969.22
2023-03-13T22:33:47.477Z,101967.56
2023-03-13T22:36:16.255Z,101965.94
2023-03-13T22:38:44.189Z,101962.95
2023-03-13T22:41:13.339Z,101955.69
2023-03-13T22:43:43.175Z,101956.49
2023-03-13T22:46:13.321Z,101949.41
2023-03-13T22:48:41.337Z,101951.25
2023-03-13T22:52:11.646Z,101949.02
2023-03-13T22:54:39.629Z,101943.55
2023-03-13T22:57:07.670Z,101939.34
2023-03-13T22:59:35.654Z,101937.86
2023-03-13T23:02:04.268Z,101934.54
2023-03-13T23:04:32.237Z,101931.34
2023-03-13T23:07:00.222Z,101928.38
2023-03-13T23:09:28.241Z,101926.19
2023-03-13T23:11:56.215Z,101925.71
2023-03-13T23:14:28.336Z,101919.60
2023-03-13T23:17:17.307Z,101922.10
2023-03-13T23:19:45.489Z,101918.89
2023-03-13T23:22:17.223Z,101921.70
2023-03-13T23:24:45.400Z,101918.52
2023-03-13T23:27:14.009Z,101913.31
2023-03-13T23:29:41.990Z,101912.70
2023-03-13T23:32:09.934Z,101910.35
2023-03-13T23:34:38.961Z,101912.45
2023-03-13T23:37:06.823Z,101911.66
2023-03-13T23:39:34.546Z,101905.88
2023-03-13T23:42:02.422Z,101904.52
2023-03-13T23:44:31.024Z,101904.55
2023-03-13T23:46:58.964Z,101902.88
2023-03-13T23:49:26.908Z,101899.70
2023-03-13T23:51:54.824Z,101895.09
2023-03-13T23:54:22.774Z,101900.84
2023-03-13T23:56:50.766Z,101896.34
2023-03-13T23:59:18.723Z,101897.70
